Time;durP1;ratioP1;P1;durP2;ratioP2;P2;SDS_P1;SDS_P2;PMS_P1;PMS_P2;Temp;Humidity;BMP_temperature;BMP_pressure;BME280_temperature;BME280_humidity;BME280_pressure;Samples;Min_cycle;Max_cycle;Signal;HPM_P1;HPM_P2
2022/06/10 00:00:25;;;;;;;6.32;1.85;;;15.60;89.80;;;;;;5014338;28;20033;-76
2022/06/10 00:02:50;;;;;;;5.32;1.40;;;15.50;89.90;;;;;;4996693;28;20037;-77
2022/06/10 00:05:24;;;;;;;6.82;1.42;;;15.50;89.90;;;;;;5014379;28;20026;-77
2022/06/10 00:07:51;;;;;;;6.15;1.40;;;15.50;90.00;;;;;;5012983;28;20022;-77
2022/06/10 00:10:20;;;;;;;6.70;1.50;;;15.50;90.20;;;;;;4996692;28;20026;-77
2022/06/10 00:12:47;;;;;;;7.18;2.70;;;15.50;90.00;;;;;;5013210;28;20083;-77
2022/06/10 00:15:13;;;;;;;10.75;2.00;;;15.40;90.00;;;;;;4996485;28;20030;-77
2022/06/10 00:17:39;;;;;;;8.50;1.50;;;15.40;90.30;;;;;;5014170;28;20030;-76
2022/06/10 00:20:07;;;;;;;4.97;1.60;;;15.40;90.10;;;;;;4996629;28;20026;-76
2022/06/10 00:22:33;;;;;;;10.55;2.10;;;15.30;90.40;;;;;;5012567;28;20430;-77
2022/06/10 00:24:59;;;;;;;6.32;1.25;;;15.30;90.50;;;;;;4981024;28;20080;-77
2022/06/10 00:27:25;;;;;;;5.80;1.40;;;15.30;90.60;;;;;;5014171;28;20501;-76
2022/06/10 00:29:51;;;;;;;4.13;1.27;;;15.20;90.70;;;;;;5012913;28;20080;-76
2022/06/10 00:32:17;;;;;;;4.78;1.48;;;15.20;90.80;;;;;;4996657;28;20025;-75
2022/06/10 00:34:43;;;;;;;6.80;1.55;;;15.10;90.90;;;;;;4996389;28;20552;-76
2022/06/10 00:37:09;;;;;;;9.65;2.50;;;15.10;90.90;;;;;;4980590;28;20022;-76
2022/06/10 00:39:35;;;;;;;7.07;1.65;;;15.10;90.90;;;;;;4980611;28;20079;-76
2022/06/10 00:42:03;;;;;;;6.03;1.38;;;15.00;90.90;;;;;;5013889;28;20026;-76
2022/06/10 00:44:34;;;;;;;6.57;1.50;;;15.00;91.10;;;;;;4996662;28;20030;-76
2022/06/10 00:47:01;;;;;;;6.38;1.75;;;14.90;91.10;;;;;;5012444;28;20414;-76
2022/06/10 00:49:28;;;;;;;8.80;1.95;;;14.80;91.10;;;;;;5012628;28;20029;-76
2022/06/10 00:51:55;;;;;;;5.60;1.75;;;14.80;91.20;;;;;;5013122;28;20451;-76
2022/06/10 00:54:38;;;;;;;7.15;1.63;;;14.70;91.30;;;;;;4996353;28;20025;-76
2022/06/10 00:57:17;;;;;;;9.73;1.67;;;14.70;91.50;;;;;;5014174;28;20022;-76
2022/06/10 00:59:58;;;;;;;7.88;1.30;;;14.70;91.60;;;;;;5012444;28;20026;-76
2022/06/10 01:02:26;;;;;;;6.55;1.70;;;14.60;91.60;;;;;;5012703;28;20378;-76
2022/06/10 01:04:57;;;;;;;7.68;1.42;;;14.60;91.70;;;;;;5012207;28;20018;-76
2022/06/10 01:07:27;;;;;;;10.00;2.15;;;14.50;91.80;;;;;;5013704;28;20101;-76
2022/06/10 01:09:54;;;;;;;8.38;2.15;;;14.50;91.90;;;;;;5013986;28;20485;-75
2022/06/10 01:12:25;;;;;;;5.65;1.77;;;14.50;92.00;;;;;;4996101;28;20022;-76
2022/06/10 01:15:18;;;;;;;4.43;1.48;;;14.50;92.20;;;;;;5012198;28;20044;-76
2022/06/10 01:18:05;;;;;;;7.18;2.10;;;14.40;92.30;;;;;;5012047;28;20437;-76
2022/06/10 01:20:45;;;;;;;9.40;2.00;;;14.30;92.50;;;;;;5012042;28;20029;-76
2022/06/10 01:23:22;;;;;;;6.88;2.13;;;14.40;92.70;;;;;;5012207;28;20069;-76
2022/06/10 01:27:47;;;;;;;7.03;1.80;;;14.40;93.00;;;;;;5012005;28;20064;-76
2022/06/10 01:30:05;;;;;;;6.43;2.08;;;14.30;93.30;;;;;;4991497;28;20054;-76
2022/06/10 01:32:57;;;;;;;5.18;1.83;;;14.30;93.40;;;;;;5009149;28;20038;-81
2022/06/10 01:35:41;;;;;;;8.48;3.40;;;14.30;93.60;;;;;;5014510;28;20048;-81
2022/06/10 01:38:19;;;;;;;7.15;2.45;;;14.30;93.70;;;;;;5014702;28;20079;-82
2022/06/10 01:40:54;;;;;;;8.65;2.35;;;14.30;93.80;;;;;;5016089;28;20076;-81
2022/06/10 01:43:46;;;;;;;5.53;2.45;;;14.20;93.80;;;;;;5014710;28;20601;-81
2022/06/10 01:46:20;;;;;;;7.15;2.70;;;14.20;94.20;;;;;;5015379;28;20026;-81
2022/06/10 01:49:08;;;;;;;10.13;2.90;;;14.20;93.90;;;;;;5013649;28;20068;-81
2022/06/10 01:52:11;;;;;;;7.25;2.65;;;14.20;94.00;;;;;;5013636;28;20026;-81
2022/06/10 01:54:58;;;;;;;8.02;3.00;;;14.20;94.00;;;;;;5012449;28;20022;-82
2022/06/10 01:57:28;;;;;;;6.22;2.55;;;14.10;94.00;;;;;;5015905;28;20033;-81
2022/06/10 02:00:20;;;;;;;7.45;2.38;;;14.00;94.00;;;;;;5017650;28;20097;-81
2022/06/10 02:03:17;;;;;;;8.85;3.03;;;14.10;94.10;;;;;;5015815;28;20041;-81
2022/06/10 02:05:54;;;;;;;10.55;2.85;;;14.10;94.10;;;;;;5015206;28;20029;-81
2022/06/10 02:08:29;;;;;;;8.88;2.55;;;14.10;94.10;;;;;;5016855;28;20014;-81
2022/06/10 02:11:03;;;;;;;6.35;2.67;;;14.10;94.20;;;;;;5015609;28;20540;-81
2022/06/10 02:13:34;;;;;;;8.40;2.63;;;14.00;94.20;;;;;;5015621;28;20028;-80
2022/06/10 02:16:03;;;;;;;9.18;3.10;;;14.10;94.50;;;;;;5016390;28;20516;-81
2022/06/10 02:18:51;;;;;;;11.40;3.08;;;14.10;94.20;;;;;;5016473;28;20025;-81
2022/06/10 02:21:23;;;;;;;8.60;2.70;;;14.10;94.30;;;;;;5016432;28;20061;-81
2022/06/10 02:24:14;;;;;;;8.63;2.53;;;14.10;94.40;;;;;;5016581;28;20022;-81
2022/06/10 02:26:41;;;;;;;8.18;2.60;;;14.10;94.50;;;;;;5015763;28;20022;-81
2022/06/10 02:29:12;;;;;;;7.10;2.75;;;14.10;94.60;;;;;;4999578;28;20033;-75
2022/06/10 02:31:44;;;;;;;6.72;2.50;;;14.10;94.70;;;;;;5014900;28;20117;-80
2022/06/10 02:34:10;;;;;;;8.23;2.53;;;14.20;94.80;;;;;;5014926;28;20014;-81
2022/06/10 02:36:41;;;;;;;8.60;2.47;;;14.30;94.90;;;;;;5015104;28;20037;-81
2022/06/10 02:39:31;;;;;;;8.18;2.25;;;14.30;95.00;;;;;;5014792;28;20022;-81
2022/06/10 02:42:01;;;;;;;11.38;2.38;;;14.40;95.00;;;;;;5015651;28;20064;-80
2022/06/10 02:44:36;;;;;;;8.23;2.40;;;14.40;95.00;;;;;;5015834;28;20036;-81
2022/06/10 02:47:23;;;;;;;9.13;2.30;;;14.50;95.00;;;;;;5015342;28;20026;-81
2022/06/10 02:49:49;;;;;;;9.52;2.05;;;14.50;95.00;;;;;;5015603;28;20355;-81
2022/06/10 02:52:17;;;;;;;6.68;2.08;;;14.50;94.80;;;;;;4998476;28;20084;-81
2022/06/10 02:54:43;;;;;;;9.63;2.50;;;14.50;94.80;;;;;;5016487;28;20033;-81
2022/06/10 02:57:17;;;;;;;8.25;2.08;;;14.60;94.70;;;;;;5014763;28;20041;-81
2022/06/10 03:02:56;;;;;;;9.32;1.90;;;14.70;94.50;;;;;;5018251;28;19964;-82
2022/06/10 03:05:52;;;;;;;9.73;2.10;;;14.70;94.40;;;;;;5014450;28;20394;-81
2022/06/10 03:08:41;;;;;;;8.35;1.92;;;14.70;94.30;;;;;;5014406;28;20418;-81
2022/06/10 03:11:22;;;;;;;8.80;1.85;;;14.70;94.20;;;;;;5014606;28;20014;-81
2022/06/10 03:14:11;;;;;;;8.82;2.05;;;14.70;94.40;;;;;;5015922;28;20025;-81
2022/06/10 03:16:52;;;;;;;7.90;1.70;;;14.80;94.10;;;;;;5014234;28;20055;-83
2022/06/10 03:19:25;;;;;;;7.88;2.38;;;14.80;94.00;;;;;;5014937;28;20030;-83
2022/06/10 03:21:56;;;;;;;7.50;2.20;;;14.80;94.00;;;;;;5015584;28;20025;-80
2022/06/10 03:24:34;;;;;;;12.38;2.17;;;14.90;94.00;;;;;;5014268;28;20029;-80
2022/06/10 03:27:09;;;;;;;10.48;2.40;;;14.90;94.00;;;;;;5014231;28;20489;-81
2022/06/10 03:29:56;;;;;;;9.23;2.20;;;14.90;93.90;;;;;;5014016;28;20032;-80
2022/06/10 03:32:49;;;;;;;8.63;2.63;;;14.90;93.90;;;;;;5031335;28;20029;-84
2022/06/10 03:35:39;;;;;;;10.23;1.98;;;15.00;93.90;;;;;;5014234;28;20029;-81
2022/06/10 03:38:06;;;;;;;10.43;3.15;;;15.00;93.80;;;;;;5030506;28;20022;-80
2022/06/10 03:40:33;;;;;;;5.55;2.03;;;15.00;93.80;;;;;;5013776;28;20049;-80
2022/06/10 03:43:02;;;;;;;8.70;1.90;;;15.00;93.80;;;;;;4981610;28;20438;-80
2022/06/10 03:45:42;;;;;;;7.93;1.63;;;15.00;93.80;;;;;;5015199;28;20018;-80
2022/06/10 03:48:14;;;;;;;12.18;2.50;;;15.10;93.90;;;;;;5014899;28;20521;-80
2022/06/10 03:50:40;;;;;;;9.50;2.38;;;15.10;93.90;;;;;;5013572;28;20377;-81
2022/06/10 03:53:12;;;;;;;10.48;2.20;;;15.10;94.10;;;;;;4997966;28;20041;-81
2022/06/10 03:55:38;;;;;;;9.90;1.85;;;15.20;94.00;;;;;;5013764;28;20022;-81
2022/06/10 03:58:04;;;;;;;7.72;1.67;;;15.20;94.00;;;;;;5013789;28;20033;-82
2022/06/10 04:00:29;;;;;;;10.13;2.00;;;15.20;94.20;;;;;;4997187;28;20034;-82
2022/06/10 04:02:55;;;;;;;8.38;1.75;;;15.20;94.20;;;;;;4997624;28;20499;-82
2022/06/10 04:05:21;;;;;;;16.88;2.28;;;15.10;94.40;;;;;;4997693;28;20471;-81
2022/06/10 04:07:46;;;;;;;10.93;1.88;;;15.10;94.60;;;;;;4996962;28;20026;-83
2022/06/10 04:10:16;;;;;;;8.48;1.80;;;15.20;94.80;;;;;;4980730;28;20382;-81
2022/06/10 04:12:42;;;;;;;8.57;1.85;;;15.10;94.90;;;;;;5013546;28;20040;-81
2022/06/10 04:15:08;;;;;;;7.57;1.70;;;15.10;95.70;;;;;;5013240;28;20026;-84
2022/06/10 04:17:34;;;;;;;9.93;2.65;;;15.10;95.40;;;;;;5012891;28;20042;-81
2022/06/10 04:20:00;;;;;;;6.97;1.83;;;15.10;95.40;;;;;;5012279;28;20420;-80
2022/06/10 04:22:26;;;;;;;9.98;2.13;;;15.10;95.50;;;;;;5014174;28;20033;-83
2022/06/10 04:24:53;;;;;;;9.65;2.13;;;15.10;95.90;;;;;;5013075;28;20018;-80
2022/06/10 04:27:18;;;;;;;10.00;1.90;;;15.10;95.80;;;;;;4996986;28;20026;-81
2022/06/10 04:29:44;;;;;;;9.80;2.08;;;15.20;96.10;;;;;;4996746;28;20065;-80
2022/06/10 04:32:10;;;;;;;10.25;1.45;;;15.10;96.20;;;;;;5029252;28;20382;-81
2022/06/10 04:34:36;;;;;;;6.53;2.00;;;15.20;96.30;;;;;;5012810;28;20026;-76
2022/06/10 04:37:03;;;;;;;8.48;1.80;;;15.20;96.10;;;;;;5001602;28;20027;-75
2022/06/10 04:39:29;;;;;;;7.45;1.83;;;15.20;96.60;;;;;;5033915;28;20112;-75
2022/06/10 04:41:55;;;;;;;8.95;1.70;;;15.20;96.70;;;;;;5013823;28;20053;-77
2022/06/10 04:44:21;;;;;;;12.23;2.08;;;15.20;97.10;;;;;;5013777;28;20107;-75
2022/06/10 04:46:47;;;;;;;9.13;2.25;;;15.20;97.20;;;;;;5021863;28;20121;-74
2022/06/10 04:49:13;;;;;;;7.45;2.05;;;15.10;97.60;;;;;;5013684;28;20379;-75
2022/06/10 04:51:39;;;;;;;11.18;2.42;;;15.10;97.60;;;;;;5023409;28;20499;-75
2022/06/10 04:54:05;;;;;;;7.70;2.22;;;15.10;97.80;;;;;;5027818;28;20029;-74
2022/06/10 04:56:32;;;;;;;9.48;2.30;;;15.00;97.90;;;;;;5031845;28;20077;-75
2022/06/10 04:58:57;;;;;;;9.93;2.63;;;15.10;97.90;;;;;;5029750;28;20571;-76
2022/06/10 05:01:23;;;;;;;9.07;2.17;;;15.10;98.20;;;;;;5011467;28;20030;-76
2022/06/10 05:03:49;;;;;;;15.88;2.45;;;15.10;98.30;;;;;;5032454;28;20122;-76
2022/06/10 05:06:14;;;;;;;8.63;2.10;;;15.10;98.50;;;;;;5015517;28;20481;-77
2022/06/10 05:08:40;;;;;;;8.13;2.45;;;15.10;98.50;;;;;;5015280;28;20120;-76
2022/06/10 05:11:07;;;;;;;4.90;1.92;;;15.10;98.60;;;;;;4999272;28;20020;-78
2022/06/10 05:13:33;;;;;;;8.85;2.55;;;15.10;98.70;;;;;;5015882;28;20021;-77
2022/06/10 05:15:58;;;;;;;5.88;2.38;;;15.20;98.80;;;;;;5031962;28;20085;-77
2022/06/10 05:18:26;;;;;;;11.32;3.28;;;15.30;98.90;;;;;;4996540;28;20073;-77
2022/06/10 05:20:52;;;;;;;7.55;2.10;;;15.30;98.90;;;;;;5006778;28;20018;-78
2022/06/10 05:23:20;;;;;;;11.07;2.30;;;15.40;99.00;;;;;;4985508;28;20521;-78
2022/06/10 05:25:47;;;;;;;13.57;2.25;;;15.40;98.90;;;;;;5008167;28;20113;-77
2022/06/10 05:28:13;;;;;;;5.72;1.90;;;15.50;99.00;;;;;;5013151;28;20021;-77
2022/06/10 05:30:40;;;;;;;7.88;2.47;;;15.50;99.00;;;;;;5004983;28;20026;-79
2022/06/10 05:33:07;;;;;;;8.57;2.35;;;15.60;99.10;;;;;;4996629;28;20030;-78
2022/06/10 05:35:34;;;;;;;10.45;2.60;;;15.60;99.10;;;;;;5004496;28;20018;-78
2022/06/10 05:38:00;;;;;;;12.25;2.25;;;15.70;99.10;;;;;;4996685;28;20479;-78
2022/06/10 05:40:28;;;;;;;8.95;2.20;;;15.80;99.40;;;;;;4996330;28;20038;-77
2022/06/10 05:42:54;;;;;;;8.50;2.00;;;15.80;99.10;;;;;;5007709;28;20033;-75
2022/06/10 05:45:21;;;;;;;7.90;1.98;;;15.80;99.10;;;;;;4997387;28;20026;-76
2022/06/10 05:47:51;;;;;;;7.28;1.80;;;15.90;99.10;;;;;;4997568;28;20490;-77
2022/06/10 05:50:20;;;;;;;8.40;1.77;;;16.00;99.10;;;;;;5013976;28;20433;-78
2022/06/10 05:52:46;;;;;;;7.70;1.63;;;16.00;99.00;;;;;;5013521;28;20084;-78
2022/06/10 05:55:13;;;;;;;9.98;1.70;;;16.10;99.00;;;;;;5017468;28;20030;-77
2022/06/10 05:57:40;;;;;;;6.97;1.58;;;16.20;99.00;;;;;;5017964;28;20030;-76
2022/06/10 06:00:09;;;;;;;7.35;1.77;;;16.20;99.00;;;;;;5022035;28;20061;-77
2022/06/10 06:02:38;;;;;;;7.45;1.70;;;16.30;98.90;;;;;;5006076;28;20023;-77
2022/06/10 06:05:03;;;;;;;7.65;1.38;;;16.40;98.90;;;;;;4998950;28;20105;-75
2022/06/10 06:07:29;;;;;;;8.75;2.15;;;16.40;98.80;;;;;;4988858;28;20053;-76
2022/06/10 06:09:55;;;;;;;10.30;2.00;;;16.40;98.60;;;;;;4995413;28;20022;-75
2022/06/10 06:12:22;;;;;;;8.05;1.70;;;16.50;98.60;;;;;;4998278;28;20084;-75
2022/06/10 06:14:48;;;;;;;12.40;1.75;;;16.50;98.40;;;;;;5015100;28;20057;-75
2022/06/10 06:17:16;;;;;;;9.27;1.75;;;16.60;98.30;;;;;;5014774;28;20068;-75
2022/06/10 06:19:42;;;;;;;7.40;1.23;;;16.60;98.30;;;;;;5031329;28;20026;-75
2022/06/10 06:22:08;;;;;;;8.85;1.98;;;16.70;98.00;;;;;;4998714;28;20034;-74
2022/06/10 06:24:36;;;;;;;7.03;1.55;;;16.80;97.90;;;;;;5014352;28;20108;-77
2022/06/10 06:27:01;;;;;;;10.93;1.83;;;16.90;97.70;;;;;;4998105;28;20084;-81
2022/06/10 06:29:27;;;;;;;9.35;1.60;;;17.00;97.50;;;;;;5014717;28;20439;-82
2022/06/10 06:31:53;;;;;;;7.63;1.88;;;17.00;97.20;;;;;;5029661;28;20046;-82
2022/06/10 06:34:21;;;;;;;8.52;1.50;;;17.10;97.10;;;;;;5014910;28;20490;-82
2022/06/10 06:36:49;;;;;;;10.77;1.92;;;17.10;96.90;;;;;;5015981;28;20088;-83
2022/06/10 06:39:18;;;;;;;11.70;2.40;;;17.20;96.80;;;;;;5014589;28;20095;-81
2022/06/10 06:41:45;;;;;;;9.90;1.95;;;17.20;96.70;;;;;;5015253;28;20076;-81
2022/06/10 06:44:12;;;;;;;6.55;1.52;;;17.20;96.50;;;;;;5014155;28;20014;-84
2022/06/10 06:46:40;;;;;;;8.80;1.60;;;17.30;96.50;;;;;;5015867;28;20022;-82
2022/06/10 06:49:09;;;;;;;8.77;1.40;;;17.30;96.40;;;;;;5015552;28;20033;-79
2022/06/10 06:51:36;;;;;;;8.50;2.13;;;17.40;96.30;;;;;;5026303;28;20026;-78
2022/06/10 06:54:02;;;;;;;11.00;2.17;;;17.50;96.20;;;;;;5014556;28;20037;-78
2022/06/10 06:56:28;;;;;;;14.27;2.40;;;17.50;95.90;;;;;;4995075;28;20030;-77
2022/06/10 06:58:55;;;;;;;11.82;2.63;;;17.60;95.90;;;;;;5011561;28;20100;-77
2022/06/10 07:01:21;;;;;;;10.20;1.80;;;17.60;95.70;;;;;;4995193;28;20033;-76
2022/06/10 07:03:47;;;;;;;7.93;1.88;;;17.60;95.60;;;;;;4996398;28;20494;-78
2022/06/10 07:06:13;;;;;;;6.43;1.98;;;17.70;95.50;;;;;;4998178;28;20120;-77
2022/06/10 07:08:38;;;;;;;8.40;2.00;;;17.70;95.50;;;;;;5014193;28;20022;-77
2022/06/10 07:11:06;;;;;;;8.75;1.55;;;17.70;95.60;;;;;;5014460;28;20026;-77
2022/06/10 07:13:33;;;;;;;8.15;1.80;;;17.80;95.20;;;;;;5014550;28;20018;-78
2022/06/10 07:16:01;;;;;;;9.23;1.90;;;17.80;95.10;;;;;;4994880;28;20057;-77
2022/06/10 07:18:30;;;;;;;5.65;1.65;;;17.80;94.90;;;;;;4978894;28;20430;-77
2022/06/10 07:20:56;;;;;;;6.00;1.42;;;17.80;94.90;;;;;;4995038;28;20442;-76
2022/06/10 07:23:22;;;;;;;6.28;1.25;;;17.80;94.80;;;;;;5002648;28;20088;-77
2022/06/10 07:25:48;;;;;;;5.70;1.40;;;18.00;94.90;;;;;;5013068;28;20076;-78
2022/06/10 07:28:14;;;;;;;5.45;1.33;;;18.00;94.80;;;;;;5015624;28;20026;-77
2022/06/10 07:30:41;;;;;;;5.78;0.90;;;18.10;94.50;;;;;;5019304;28;20025;-74
2022/06/10 07:33:08;;;;;;;7.57;1.58;;;18.10;94.30;;;;;;5013346;28;20038;-76
2022/06/10 07:35:35;;;;;;;8.32;1.42;;;18.20;94.20;;;;;;5006934;28;20096;-76
2022/06/10 07:38:01;;;;;;;8.68;1.33;;;18.20;94.00;;;;;;5014134;28;20080;-76
2022/06/10 07:43:27;;;;;;;5.20;1.00;;;18.30;93.80;;;;;;5014584;28;20041;-80
2022/06/10 07:45:53;;;;;;;10.93;1.35;;;18.30;93.60;;;;;;5013589;28;20026;-81
2022/06/10 07:48:19;;;;;;;7.50;1.33;;;18.30;93.60;;;;;;5013738;28;20466;-81
2022/06/10 07:50:46;;;;;;;6.28;1.02;;;18.40;93.60;;;;;;4997085;28;20030;-82
2022/06/10 07:53:13;;;;;;;6.32;1.08;;;18.50;93.60;;;;;;5002163;28;20371;-75
2022/06/10 07:55:39;;;;;;;5.85;1.10;;;18.70;93.60;;;;;;4994999;28;20095;-77
2022/06/10 07:58:06;;;;;;;7.57;1.05;;;18.70;93.10;;;;;;4993350;28;20121;-85
2022/06/10 08:00:34;;;;;;;8.30;1.10;;;18.90;92.90;;;;;;4995818;28;20031;-75
2022/06/10 08:03:00;;;;;;;5.65;1.13;;;19.00;92.60;;;;;;5013302;28;20084;-76
2022/06/10 08:05:26;;;;;;;5.65;1.00;;;19.10;92.40;;;;;;5013138;28;20022;-76
2022/06/10 08:07:52;;;;;;;6.60;1.30;;;19.20;92.40;;;;;;5013064;28;20500;-76
2022/06/10 08:10:22;;;;;;;8.02;1.10;;;19.40;92.10;;;;;;4996861;28;20050;-75
2022/06/10 08:12:48;;;;;;;3.47;0.77;;;19.40;91.70;;;;;;4993662;28;20117;-77
2022/06/10 08:15:15;;;;;;;5.25;1.17;;;19.50;91.30;;;;;;4981180;28;20164;-75
2022/06/10 08:17:41;;;;;;;4.03;0.70;;;19.60;91.00;;;;;;5012431;28;20405;-76
2022/06/10 08:20:08;;;;;;;6.03;0.90;;;19.60;90.90;;;;;;5013098;28;20037;-75
2022/06/10 08:22:35;;;;;;;5.95;1.08;;;19.70;90.50;;;;;;5011857;28;20045;-76
2022/06/10 08:25:05;;;;;;;5.88;0.88;;;19.80;90.40;;;;;;5011676;28;20025;-74
2022/06/10 08:27:31;;;;;;;8.02;0.98;;;19.90;90.20;;;;;;5012856;28;20141;-76
2022/06/10 08:29:57;;;;;;;5.90;0.80;;;20.00;90.00;;;;;;5012767;28;20084;-77
2022/06/10 08:32:24;;;;;;;4.78;0.90;;;20.10;89.30;;;;;;4993833;28;20033;-77
2022/06/10 08:34:50;;;;;;;6.53;0.90;;;20.20;89.10;;;;;;5008477;28;20025;-77
2022/06/10 08:37:16;;;;;;;5.75;0.90;;;20.30;88.10;;;;;;5012699;28;20485;-77
2022/06/10 08:39:42;;;;;;;8.43;1.30;;;20.30;87.30;;;;;;4998975;28;20022;-76
2022/06/10 08:42:19;;;;;;;4.88;1.05;;;20.40;85.70;;;;;;5000925;28;20144;-75
2022/06/10 08:44:54;;;;;;;10.10;0.90;;;20.40;85.50;;;;;;5000031;28;20101;-75
2022/06/10 08:47:43;;;;;;;5.03;0.82;;;20.40;85.50;;;;;;5002482;28;20018;-74
2022/06/10 08:50:26;;;;;;;5.75;0.75;;;20.50;85.60;;;;;;5002206;28;20553;-74
2022/06/10 08:53:13;;;;;;;5.35;0.80;;;20.60;85.30;;;;;;5009508;28;20030;-82
2022/06/10 08:56:03;;;;;;;8.35;1.02;;;20.60;84.20;;;;;;5008842;28;20032;-82
2022/06/10 08:58:39;;;;;;;4.47;0.93;;;20.60;83.80;;;;;;5012326;28;20026;-84
2022/06/10 09:01:11;;;;;;;5.93;0.90;;;20.70;83.40;;;;;;5012610;28;20474;-82
2022/06/10 09:03:40;;;;;;;6.25;0.90;;;20.70;81.70;;;;;;5012279;28;20553;-83
2022/06/10 09:06:11;;;;;;;6.60;0.98;;;20.70;81.40;;;;;;5011384;28;20018;-85
2022/06/10 09:08:46;;;;;;;7.97;1.10;;;20.70;81.00;;;;;;5013125;28;20393;-84
2022/06/10 09:11:27;;;;;;;6.13;0.80;;;20.80;81.20;;;;;;5013731;28;20494;-83
2022/06/10 09:13:59;;;;;;;6.47;0.82;;;20.90;81.60;;;;;;4998286;28;20078;-83
2022/06/10 09:16:31;;;;;;;5.38;0.98;;;21.00;80.80;;;;;;5010357;28;20045;-84
2022/06/10 09:19:08;;;;;;;4.53;1.00;;;21.10;79.70;;;;;;5012083;28;20070;-81
2022/06/10 09:21:42;;;;;;;7.50;1.08;;;21.20;79.00;;;;;;5012078;28;20025;-73
2022/06/10 09:24:25;;;;;;;4.53;0.82;;;21.30;78.40;;;;;;5006850;28;20070;-74
2022/06/10 09:27:15;;;;;;;6.40;0.90;;;21.30;77.50;;;;;;5011900;28;20084;-75
2022/06/10 09:29:42;;;;;;;4.40;1.10;;;21.40;77.10;;;;;;5003231;28;20044;-75
2022/06/10 09:32:13;;;;;;;6.60;0.70;;;21.50;76.90;;;;;;4989172;28;20042;-74
2022/06/10 09:34:58;;;;;;;5.93;0.73;;;21.60;76.40;;;;;;5011902;28;20026;-76
2022/06/10 09:37:32;;;;;;;8.93;1.05;;;21.70;76.40;;;;;;4997784;28;20023;-85
2022/06/10 09:43:22;;;;;;;5.75;0.93;;;22.10;76.40;;;;;;4993802;28;20087;-84
2022/06/10 09:46:10;;;;;;;3.22;0.70;;;22.20;75.50;;;;;;4993467;28;20030;-83
2022/06/10 09:49:03;;;;;;;7.03;1.40;;;22.20;74.30;;;;;;4992305;28;20368;-83
2022/06/10 09:51:44;;;;;;;7.72;1.08;;;22.20;73.90;;;;;;4993767;28;20030;-84
2022/06/10 09:54:28;;;;;;;7.53;0.90;;;22.20;73.50;;;;;;4993895;28;20455;-84
2022/06/10 09:57:00;;;;;;;5.25;0.98;;;22.20;73.60;;;;;;5010542;28;20045;-82
2022/06/10 09:59:34;;;;;;;9.55;1.35;;;22.20;73.60;;;;;;5012209;28;20053;-81
2022/06/10 10:02:34;;;;;;;9.85;1.35;;;22.20;73.10;;;;;;5010442;28;20061;-83
2022/06/10 10:05:05;;;;;;;4.88;1.00;;;22.20;73.00;;;;;;4992236;28;20096;-83
2022/06/10 10:07:57;;;;;;;7.53;0.90;;;22.20;73.20;;;;;;4995077;28;20058;-84
2022/06/10 10:10:36;;;;;;;6.45;0.88;;;22.20;73.30;;;;;;5011954;28;20037;-83
2022/06/10 10:13:26;;;;;;;4.00;0.75;;;22.30;73.40;;;;;;5002269;28;20484;-86
2022/06/10 10:16:04;;;;;;;5.07;0.85;;;22.30;73.30;;;;;;5003048;28;20046;-84
2022/06/10 10:18:58;;;;;;;4.75;0.90;;;22.30;73.60;;;;;;4995140;28;20057;-82
2022/06/10 10:21:56;;;;;;;6.07;0.90;;;22.40;73.70;;;;;;4996935;28;20478;-83
2022/06/10 10:24:24;;;;;;;7.18;1.10;;;22.50;73.40;;;;;;4974228;28;20053;-84
2022/06/10 10:26:51;;;;;;;7.82;1.27;;;22.60;72.70;;;;;;4997114;28;20031;-84
2022/06/10 10:29:31;;;;;;;6.50;1.15;;;22.70;72.90;;;;;;4995467;28;20041;-83
2022/06/10 10:32:09;;;;;;;8.77;0.95;;;22.80;72.80;;;;;;4996650;28;20040;-82
2022/06/10 10:34:37;;;;;;;4.88;0.90;;;22.90;72.90;;;;;;4995391;28;20474;-84
2022/06/10 10:37:18;;;;;;;7.40;1.30;;;22.90;72.20;;;;;;5006013;28;20120;-83
2022/06/10 10:39:53;;;;;;;6.57;0.90;;;23.00;72.00;;;;;;5016053;28;20116;-83
2022/06/10 10:42:20;;;;;;;7.47;0.90;;;23.00;71.80;;;;;;5014681;28;20018;-83
2022/06/10 10:45:02;;;;;;;8.38;1.20;;;23.10;71.80;;;;;;5006964;28;20411;-85
2022/06/10 10:47:28;;;;;;;8.15;1.38;;;23.20;71.10;;;;;;4996275;28;20034;-83
2022/06/10 10:49:58;;;;;;;4.10;0.93;;;23.30;70.80;;;;;;5016782;28;20405;-84
2022/06/10 10:52:40;;;;;;;7.25;1.20;;;23.40;70.70;;;;;;5030758;28;20021;-82
2022/06/10 10:55:14;;;;;;;5.57;1.35;;;23.50;70.50;;;;;;5009297;28;20056;-83
2022/06/10 10:58:03;;;;;;;9.52;1.58;;;23.50;70.40;;;;;;5015910;28;20030;-83
2022/06/10 11:00:36;;;;;;;7.15;1.40;;;23.50;69.90;;;;;;5003722;28;20042;-86
2022/06/10 11:03:05;;;;;;;5.88;1.10;;;23.40;69.70;;;;;;5003141;28;20026;-82
2022/06/10 11:05:37;;;;;;;6.93;1.77;;;23.40;69.70;;;;;;5000917;28;20113;-83
2022/06/10 11:08:17;;;;;;;4.78;1.00;;;23.30;69.80;;;;;;5012722;28;20021;-84
2022/06/10 11:11:08;;;;;;;6.47;1.35;;;23.20;69.80;;;;;;4995974;28;20486;-85
2022/06/10 11:13:49;;;;;;;8.77;1.38;;;23.10;69.70;;;;;;4994770;28;20080;-82
2022/06/10 11:16:36;;;;;;;7.30;1.17;;;23.00;70.00;;;;;;5004490;28;20045;-85
2022/06/10 11:19:14;;;;;;;7.65;1.10;;;23.00;70.20;;;;;;5013976;28;20032;-84
2022/06/10 11:22:00;;;;;;;7.45;1.20;;;23.10;70.40;;;;;;5014210;28;20029;-83
2022/06/10 11:24:34;;;;;;;7.10;0.95;;;23.00;70.60;;;;;;5014063;28;20037;-83
2022/06/10 11:27:02;;;;;;;5.78;1.10;;;23.00;70.70;;;;;;5015398;28;20030;-84
2022/06/10 11:29:29;;;;;;;5.50;1.42;;;23.00;70.90;;;;;;5014983;28;20030;-84
2022/06/10 11:31:55;;;;;;;7.25;1.30;;;23.00;70.90;;;;;;5013622;28;20058;-82
2022/06/10 11:34:38;;;;;;;8.38;1.75;;;23.00;70.80;;;;;;5013796;28;20497;-82
2022/06/10 11:37:40;;;;;;;8.27;1.50;;;23.00;70.90;;;;;;5014703;28;20033;-78
2022/06/10 11:40:15;;;;;;;4.88;0.90;;;22.90;71.10;;;;;;5008623;28;20030;-78
2022/06/10 11:43:01;;;;;;;8.82;1.42;;;22.90;71.30;;;;;;5013481;28;20030;-79
2022/06/10 11:45:41;;;;;;;6.10;0.98;;;23.00;71.40;;;;;;5013452;28;20030;-80
2022/06/10 11:48:24;;;;;;;7.00;1.65;;;23.10;71.20;;;;;;5014764;28;20026;-77
2022/06/10 11:50:58;;;;;;;7.20;1.27;;;23.10;71.00;;;;;;5029958;28;20506;-79
2022/06/10 11:53:51;;;;;;;7.70;1.52;;;23.10;71.10;;;;;;5026970;28;20116;-81
2022/06/10 11:59:49;;;;;;;8.02;1.73;;;23.40;70.80;;;;;;4954796;29;20199;-78
2022/06/10 12:02:35;;;;;;;10.38;1.45;;;23.80;70.50;;;;;;5010887;28;20033;-81
2022/06/10 12:05:04;;;;;;;8.35;1.40;;;23.90;69.60;;;;;;5013193;28;20030;-82
2022/06/10 12:07:33;;;;;;;5.55;1.42;;;24.20;69.70;;;;;;5014537;28;20022;-80
2022/06/10 12:10:05;;;;;;;9.98;1.17;;;24.60;69.10;;;;;;5013114;28;20022;-80
2022/06/10 12:12:39;;;;;;;5.85;1.58;;;24.90;68.20;;;;;;5013163;28;20041;-80
2022/06/10 12:15:32;;;;;;;5.95;1.38;;;25.00;67.70;;;;;;5013642;28;20029;-80
2022/06/10 12:18:03;;;;;;;6.28;0.93;;;25.20;67.20;;;;;;5013040;28;20149;-78
2022/06/10 12:20:32;;;;;;;7.95;1.10;;;25.40;67.20;;;;;;5010360;28;20356;-76
2022/06/10 12:23:05;;;;;;;8.13;1.27;;;25.40;66.70;;;;;;5011262;28;20152;-76
2022/06/10 12:25:40;;;;;;;7.15;1.15;;;25.30;66.30;;;;;;5021819;28;20383;-78
2022/06/10 12:28:33;;;;;;;6.93;1.10;;;25.30;66.10;;;;;;5026627;28;20018;-76
2022/06/10 12:31:07;;;;;;;7.90;1.55;;;25.20;66.20;;;;;;5016082;28;20034;-73
2022/06/10 12:33:43;;;;;;;5.55;1.08;;;25.20;66.20;;;;;;5028679;28;20366;-76
2022/06/10 12:36:19;;;;;;;6.07;1.25;;;25.30;66.50;;;;;;5019362;28;20029;-75
2022/06/10 12:38:50;;;;;;;5.80;1.30;;;25.50;66.20;;;;;;4994317;28;20038;-76
2022/06/10 12:41:22;;;;;;;4.20;1.10;;;25.70;66.10;;;;;;5014267;28;20046;-75
2022/06/10 12:44:00;;;;;;;6.40;1.30;;;25.70;65.90;;;;;;5024959;28;20038;-75
2022/06/10 12:46:46;;;;;;;5.45;1.20;;;25.90;65.70;;;;;;5003278;28;20018;-75
2022/06/10 12:49:26;;;;;;;6.78;1.30;;;26.00;64.80;;;;;;5012407;28;20064;-78
2022/06/10 12:51:59;;;;;;;5.97;1.33;;;26.00;64.30;;;;;;5032168;28;20022;-78
2022/06/10 12:54:41;;;;;;;4.70;0.93;;;25.90;63.60;;;;;;5026890;28;20022;-76
2022/06/10 12:57:31;;;;;;;4.00;0.98;;;25.80;63.80;;;;;;5005659;28;20454;-78
2022/06/10 13:00:18;;;;;;;4.97;0.98;;;25.70;64.00;;;;;;5000437;28;20037;-76
2022/06/10 13:02:59;;;;;;;6.72;1.15;;;25.60;63.90;;;;;;5009184;28;20112;-77
2022/06/10 13:05:31;;;;;;;5.40;1.02;;;25.50;64.10;;;;;;5014903;28;20017;-76
2022/06/10 13:08:01;;;;;;;5.45;1.27;;;25.40;64.10;;;;;;5017292;28;20025;-78
2022/06/10 13:10:32;;;;;;;6.93;1.13;;;25.40;64.00;;;;;;5032222;28;20030;-76
2022/06/10 13:13:22;;;;;;;5.18;1.17;;;25.40;64.10;;;;;;5010755;28;20037;-78
2022/06/10 13:15:48;;;;;;;3.75;0.90;;;25.40;64.30;;;;;;5012681;28;20094;-78
2022/06/10 13:18:17;;;;;;;5.57;1.20;;;25.70;64.60;;;;;;5007452;28;20033;-77
2022/06/10 13:20:45;;;;;;;3.67;0.75;;;26.20;64.20;;;;;;5020787;28;20060;-76
2022/06/10 13:23:26;;;;;;;6.47;1.02;;;26.50;63.80;;;;;;5015918;28;20041;-76
2022/06/10 13:26:03;;;;;;;5.22;1.00;;;26.70;62.70;;;;;;5006776;28;20501;-76
2022/06/10 13:28:34;;;;;;;6.57;1.45;;;26.90;62.10;;;;;;5001201;28;20038;-83